createdAt,value
2022-09-26T00:01:15.023Z,94787.78
2022-09-26T00:03:49.950Z,94796.75
2022-09-26T00:06:17.406Z,94791.47
2022-09-26T00:08:45.235Z,94795.72
2022-09-26T00:11:14.258Z,94797.41
2022-09-26T00:13:42.203Z,94797.50
2022-09-26T00:16:10.716Z,94793.97
2022-09-26T00:18:37.616Z,94793.50
2022-09-26T00:21:12.755Z,94797.31
2022-09-26T00:23:40.049Z,94792.50
2022-09-26T00:26:06.811Z,94794.19
2022-09-26T00:28:33.616Z,94793.59
2022-09-26T00:31:09.400Z,94787.19
2022-09-26T00:33:36.756Z,94772.56
2022-09-26T00:36:05.532Z,94780.34
2022-09-26T00:38:32.043Z,94774.16
2022-09-26T00:40:58.623Z,94774.16
2022-09-26T00:43:31.648Z,94759.25
2022-09-26T00:46:22.930Z,94766.88
2022-09-26T00:49:13.568Z,94750.94
2022-09-26T00:51:42.636Z,94756.81
2022-09-26T00:54:11.218Z,94750.84
2022-09-26T00:56:38.883Z,94750.53
2022-09-26T00:59:09.770Z,94752.19
2022-09-26T01:01:36.548Z,94744.88
2022-09-26T01:04:06.314Z,94749.22
2022-09-26T01:06:32.916Z,94749.34
2022-09-26T01:09:01.888Z,94742.81
2022-09-26T01:11:28.727Z,94746.75
2022-09-26T01:13:56.885Z,94739.56
2022-09-26T01:16:23.559Z,94732.47
2022-09-26T01:18:50.124Z,94735.56
2022-09-26T01:21:44.727Z,94727.84
2022-09-26T01:24:33.037Z,94729.34
2022-09-26T01:27:57.092Z,94728.50
2022-09-26T01:30:25.246Z,94731.06
2022-09-26T01:33:28.412Z,94739.69
2022-09-26T01:36:05.750Z,94735.94
2022-09-26T01:38:55.412Z,94733.59
2022-09-26T01:41:58.343Z,94725.91
2022-09-26T01:44:54.212Z,94725.06
2022-09-26T01:47:28.203Z,94720.25
2022-09-26T01:50:04.265Z,94720.31
2022-09-26T01:52:44.880Z,94719.66
2022-09-26T01:55:14.766Z,94713.66
2022-09-26T01:57:46.860Z,94715.56
2022-09-26T02:00:13.469Z,94712.00
2022-09-26T02:02:48.149Z,94716.13
2022-09-26T02:05:28.886Z,94711.91
2022-09-26T02:08:20.988Z,94708.81
2022-09-26T02:10:57.780Z,94711.44
2022-09-26T02:13:31.488Z,94706.75
2022-09-26T02:16:04.713Z,94703.13
2022-09-26T02:18:42.140Z,94703.50
2022-09-26T02:21:19.986Z,94699.44
2022-09-26T02:23:52.067Z,94694.75
2022-09-26T02:26:19.051Z,94695.09
2022-09-26T02:28:45.799Z,94696.41
2022-09-26T02:31:14.282Z,94695.09
2022-09-26T02:33:40.977Z,94691.81
2022-09-26T02:36:08.472Z,94681.78
2022-09-26T02:38:35.198Z,94680.31
2022-09-26T02:41:04.624Z,94676.56
2022-09-26T02:43:44.366Z,94669.88
2022-09-26T02:46:35.664Z,94663.66
2022-09-26T02:49:21.770Z,94664.38
2022-09-26T02:51:59.197Z,94667.06
2022-09-26T02:54:34.785Z,94657.03
2022-09-26T02:57:08.175Z,94657.59
2022-09-26T03:00:01.838Z,94657.28
2022-09-26T03:02:37.892Z,94654.88
2022-09-26T03:05:11.212Z,94655.94
2022-09-26T03:08:11.709Z,94664.84
2022-09-26T03:10:38.962Z,94656.81
2022-09-26T03:13:13.263Z,94664.84
2022-09-26T03:15:42.078Z,94663.56
2022-09-26T03:18:11.458Z,94655.25
2022-09-26T03:20:37.958Z,94647.00
2022-09-26T03:23:04.927Z,94645.53
2022-09-26T03:25:31.711Z,94646.44
2022-09-26T03:27:58.294Z,94639.09
2022-09-26T03:30:24.814Z,94639.94
2022-09-26T03:32:51.389Z,94635.78
2022-09-26T03:35:17.939Z,94638.78
2022-09-26T03:37:44.558Z,94633.16
2022-09-26T03:40:12.955Z,94635.91
2022-09-26T03:42:39.918Z,94634.13
2022-09-26T03:45:09.147Z,94624.56
2022-09-26T03:47:35.799Z,94617.13
2022-09-26T03:50:08.015Z,94618.31
2022-09-26T03:52:34.490Z,94613.66
2022-09-26T03:55:01.564Z,94616.59
2022-09-26T03:57:28.114Z,94616.41
2022-09-26T03:59:54.633Z,94620.94
2022-09-26T04:02:21.333Z,94612.78
2022-09-26T04:04:48.081Z,94614.41
2022-09-26T04:07:14.738Z,94609.78
2022-09-26T04:09:41.242Z,94610.13
2022-09-26T04:12:07.733Z,94596.91
2022-09-26T04:14:35.040Z,94596.13
2022-09-26T04:17:01.732Z,94593.88
2022-09-26T04:19:28.285Z,94605.19
2022-09-26T04:21:54.819Z,94589.66
2022-09-26T04:24:21.385Z,94596.75
2022-09-26T04:26:48.280Z,94592.97
2022-09-26T04:29:15.022Z,94595.47
2022-09-26T04:31:41.664Z,94599.28
2022-09-26T04:34:09.828Z,94597.69
2022-09-26T04:36:36.319Z,94596.53
2022-09-26T04:39:03.301Z,94589.50
2022-09-26T04:41:30.178Z,94600.56
2022-09-26T04:43:58.058Z,94591.03
2022-09-26T04:46:30.442Z,94591.84
2022-09-26T04:48:59.229Z,94593.06
2022-09-26T04:51:27.042Z,94587.00
2022-09-26T04:53:53.592Z,94583.94
2022-09-26T04:56:22.297Z,94584.22
2022-09-26T04:58:50.073Z,94585.06
2022-09-26T05:01:19.451Z,94588.28
2022-09-26T05:03:46.567Z,94587.22
2022-09-26T05:06:15.413Z,94592.03
2022-09-26T05:08:42.838Z,94581.59
2022-09-26T05:11:09.554Z,94590.72
2022-09-26T05:13:36.618Z,94585.09
2022-09-26T05:16:03.441Z,94582.03
2022-09-26T05:18:30.260Z,94584.63
2022-09-26T05:20:57.168Z,94583.94
2022-09-26T05:23:25.633Z,94582.25
2022-09-26T05:25:52.106Z,94587.50
2022-09-26T05:28:18.632Z,94577.41
2022-09-26T05:30:45.791Z,94588.09
2022-09-26T05:33:12.251Z,94575.19
2022-09-26T05:35:42.163Z,94584.97
2022-09-26T05:38:08.646Z,94571.97
2022-09-26T05:40:35.160Z,94577.00
2022-09-26T05:43:02.446Z,94573.84
2022-09-26T05:45:29.347Z,94581.81
2022-09-26T05:47:55.896Z,94574.28
2022-09-26T05:50:22.547Z,94565.09
2022-09-26T05:52:49.061Z,94574.22
2022-09-26T05:55:15.702Z,94561.81
2022-09-26T05:57:57.914Z,94559.69
2022-09-26T06:00:25.612Z,94561.28
2022-09-26T06:02:56.753Z,94566.97
2022-09-26T06:05:26.009Z,94563.41
2022-09-26T06:07:52.792Z,94558.09
2022-09-26T06:10:20.407Z,94557.78
2022-09-26T06:12:50.839Z,94567.91
2022-09-26T06:15:17.787Z,94567.50
2022-09-26T06:17:44.785Z,94563.13
2022-09-26T06:20:11.380Z,94562.06
2022-09-26T06:22:41.694Z,94553.56
2022-09-26T06:25:13.349Z,94553.66
2022-09-26T06:27:39.865Z,94564.38
2022-09-26T06:30:07.985Z,94557.53
2022-09-26T06:32:34.751Z,94562.16
2022-09-26T06:35:01.407Z,94563.75
2022-09-26T06:37:27.881Z,94549.38
2022-09-26T06:39:59.073Z,94554.53
2022-09-26T06:42:26.025Z,94560.28
2022-09-26T06:44:52.499Z,94563.81
2022-09-26T06:47:19.062Z,94567.09
2022-09-26T06:49:45.649Z,94560.75
2022-09-26T06:52:12.180Z,94555.59
2022-09-26T06:54:38.675Z,94564.19
2022-09-26T06:57:05.312Z,94559.19
2022-09-26T06:59:32.902Z,94551.78
2022-09-26T07:01:59.457Z,94546.81
2022-09-26T07:04:26.123Z,94549.03
2022-09-26T07:06:52.814Z,94546.50
2022-09-26T07:09:19.501Z,94545.06
2022-09-26T07:12:12.929Z,94546.03
2022-09-26T07:14:37.090Z,94542.09
2022-09-26T07:17:03.563Z,94558.06
2022-09-26T07:19:30.687Z,94552.75
2022-09-26T07:21:57.330Z,94552.94
2022-09-26T07:24:23.776Z,94551.53
2022-09-26T07:26:50.697Z,94549.28
2022-09-26T07:29:17.273Z,94548.56
2022-09-26T07:31:43.818Z,94544.72
2022-09-26T07:34:12.339Z,94538.88
2022-09-26T07:36:41.014Z,94538.34
2022-09-26T07:39:07.589Z,94544.22
2022-09-26T07:41:34.061Z,94541.03
2022-09-26T07:46:47.211Z,94546.28
2022-09-26T07:49:13.772Z,94552.03
2022-09-26T07:51:40.205Z,94555.44
2022-09-26T07:54:06.978Z,94555.38
2022-09-26T07:56:33.732Z,94557.88
2022-09-26T07:59:02.717Z,94544.56
2022-09-26T08:01:29.457Z,94554.19
2022-09-26T08:03:56.060Z,94559.56
2022-09-26T08:06:22.788Z,94555.09
2022-09-26T08:08:53.324Z,94548.41
2022-09-26T08:11:20.007Z,94552.97
2022-09-26T08:13:47.394Z,94557.56
2022-09-26T08:16:14.963Z,94548.75
2022-09-26T08:18:41.511Z,94553.81
2022-09-26T08:21:08.002Z,94552.22
2022-09-26T08:23:34.605Z,94560.50
2022-09-26T08:26:05.065Z,94552.22
2022-09-26T08:28:31.589Z,94545.56
2022-09-26T08:30:58.835Z,94548.75
2022-09-26T08:33:25.471Z,94546.63
2022-09-26T08:35:51.999Z,94542.09
2022-09-26T08:38:18.477Z,94536.25
2022-09-26T08:41:00.388Z,94547.16
2022-09-26T08:43:45.743Z,94527.72
2022-09-26T08:46:20.155Z,94542.09
2022-09-26T08:49:04.808Z,94532.19
2022-09-26T08:51:39.143Z,94530.56
2022-09-26T08:54:14.973Z,94532.94
2022-09-26T08:56:46.789Z,94537.00
2022-09-26T08:59:19.699Z,94533.81
2022-09-26T09:01:47.792Z,94519.66
2022-09-26T09:04:19.819Z,94517.81
2022-09-26T09:06:46.757Z,94515.97
2022-09-26T09:09:16.295Z,94521.81
2022-09-26T09:12:04.320Z,94530.06
2022-09-26T09:15:23.450Z,94521.81
2022-09-26T09:18:02.623Z,94525.25
2022-09-26T09:20:57.961Z,94525.53
2022-09-26T09:23:42.924Z,94521.53
2022-09-26T09:29:33.861Z,94518.00
2022-09-26T09:32:04.235Z,94517.97
2022-09-26T09:34:40.722Z,94523.28
2022-09-26T09:37:19.729Z,94515.28
2022-09-26T09:39:48.013Z,94520.06
2022-09-26T09:42:31.668Z,94505.25
2022-09-26T09:45:04.174Z,94512.47
2022-09-26T09:47:31.541Z,94503.81
2022-09-26T09:49:59.100Z,94504.28
2022-09-26T09:52:37.798Z,94512.38
2022-09-26T09:55:29.189Z,94510.34
2022-09-26T09:58:29.537Z,94500.75
2022-09-26T10:01:13.575Z,94494.53
2022-09-26T10:03:50.948Z,94494.56
2022-09-26T10:06:45.820Z,94503.25
2022-09-26T10:09:38.729Z,94500.13
2022-09-26T10:12:16.464Z,94500.56
2022-09-26T10:14:50.194Z,94491.41
2022-09-26T10:17:18.000Z,94492.66
2022-09-26T10:19:44.632Z,94481.19
2022-09-26T10:22:17.816Z,94480.16
2022-09-26T10:24:46.488Z,94484.09
2022-09-26T10:27:35.018Z,94471.66
2022-09-26T10:30:04.892Z,94482.00
2022-09-26T10:32:31.228Z,94477.88
2022-09-26T10:35:21.835Z,94470.00
2022-09-26T10:37:58.405Z,94473.88
2022-09-26T10:40:28.932Z,94472.41
2022-09-26T10:43:18.250Z,94462.06
2022-09-26T10:45:44.775Z,94470.34
2022-09-26T10:48:12.649Z,94458.69
2022-09-26T10:50:48.276Z,94455.03
2022-09-26T10:53:15.034Z,94450.09
2022-09-26T10:55:46.259Z,94456.31
2022-09-26T10:58:22.206Z,94461.09
2022-09-26T11:00:48.910Z,94461.06
2022-09-26T11:03:20.209Z,94458.00
2022-09-26T11:05:47.920Z,94450.66
2022-09-26T11:08:14.436Z,94457.00
2022-09-26T11:10:40.997Z,94448.53
2022-09-26T11:13:17.944Z,94447.81
2022-09-26T11:15:57.445Z,94443.06
2022-09-26T11:18:41.937Z,94436.19
2022-09-26T11:21:28.254Z,94431.31
2022-09-26T11:24:14.405Z,94430.28
2022-09-26T11:27:11.738Z,94426.59
2022-09-26T11:30:14.430Z,94426.88
2022-09-26T11:32:44.052Z,94422.34
2022-09-26T11:35:16.651Z,94417.91
2022-09-26T11:38:01.910Z,94408.00
2022-09-26T11:40:46.953Z,94413.38
2022-09-26T11:43:50.335Z,94412.66
2022-09-26T11:46:49.832Z,94412.91
2022-09-26T11:49:41.741Z,94403.78
2022-09-26T11:52:23.373Z,94393.53
2022-09-26T11:55:17.092Z,94392.88
2022-09-26T11:57:59.134Z,94391.19
2022-09-26T12:00:35.700Z,94391.31
2022-09-26T12:03:29.136Z,94380.63
2022-09-26T12:06:12.494Z,94382.69
2022-09-26T12:09:09.672Z,94378.97
2022-09-26T12:11:48.123Z,94372.63
2022-09-26T12:14:33.279Z,94371.19
2022-09-26T12:17:18.533Z,94361.38
2022-09-26T12:19:54.361Z,94357.13
2022-09-26T12:22:59.520Z,94349.66
2022-09-26T12:25:47.650Z,94351.16
2022-09-26T12:28:29.511Z,94350.44
2022-09-26T12:31:05.179Z,94349.75
2022-09-26T12:33:35.103Z,94338.84
2022-09-26T12:36:16.801Z,94342.31
2022-09-26T12:39:21.095Z,94333.38
2022-09-26T12:41:56.762Z,94324.72
2022-09-26T12:44:48.258Z,94324.41
2022-09-26T12:47:33.342Z,94333.13
2022-09-26T12:50:02.672Z,94328.44
2022-09-26T12:52:44.121Z,94320.69
2022-09-26T12:55:37.620Z,94332.56
2022-09-26T12:58:19.339Z,94325.19
2022-09-26T13:00:55.907Z,94322.53
2022-09-26T13:03:34.293Z,94321.03
2022-09-26T13:06:08.989Z,94310.78
2022-09-26T13:09:14.007Z,94308.50
2022-09-26T13:12:02.076Z,94308.53
2022-09-26T13:14:47.438Z,94293.41
2022-09-26T13:17:22.067Z,94303.25
2022-09-26T13:19:51.621Z,94305.19
2022-09-26T13:22:41.749Z,94294.31
2022-09-26T13:25:11.291Z,94294.91
2022-09-26T13:27:42.063Z,94293.16
2022-09-26T13:30:19.096Z,94290.66
2022-09-26T13:33:00.298Z,94273.72
2022-09-26T13:35:29.891Z,94276.88
2022-09-26T13:38:21.530Z,94275.00
2022-09-26T13:41:29.285Z,94272.47
2022-09-26T13:44:08.555Z,94265.56
2022-09-26T13:46:57.103Z,94261.81
2022-09-26T13:49:54.197Z,94256.44
2022-09-26T13:52:35.927Z,94261.06
2022-09-26T13:55:14.270Z,94246.88
2022-09-26T13:58:19.786Z,94251.44
2022-09-26T14:00:46.631Z,94257.75
2022-09-26T14:03:13.173Z,94257.88
2022-09-26T14:05:42.471Z,94257.84
2022-09-26T14:08:24.262Z,94260.72
2022-09-26T14:11:05.939Z,94256.47
2022-09-26T14:13:36.803Z,94249.22
2022-09-26T14:16:28.187Z,94246.34
2022-09-26T14:18:58.399Z,94239.63
2022-09-26T14:21:53.786Z,94234.97
2022-09-26T14:24:20.145Z,94242.75
2022-09-26T14:27:09.932Z,94243.78
2022-09-26T14:29:39.192Z,94231.63
2022-09-26T14:32:16.226Z,94236.81
2022-09-26T14:34:46.070Z,94228.38
2022-09-26T14:37:31.701Z,94222.50
2022-09-26T14:40:10.395Z,94228.31
2022-09-26T14:42:42.643Z,94226.47
2022-09-26T14:45:21.907Z,94226.13
2022-09-26T14:48:09.596Z,94223.09
2022-09-26T14:50:50.342Z,94222.22
2022-09-26T14:53:33.525Z,94227.94
2022-09-26T14:56:07.322Z,94220.75
2022-09-26T14:58:47.282Z,94225.66
2022-09-26T15:01:16.532Z,94217.13
2022-09-26T15:03:43.589Z,94218.09
2022-09-26T15:06:12.321Z,94218.47
2022-09-26T15:08:41.279Z,94211.91
2022-09-26T15:11:47.655Z,94212.19
2022-09-26T15:14:50.218Z,94203.31
2022-09-26T15:17:20.240Z,94205.38
2022-09-26T15:19:52.877Z,94210.81
2022-09-26T15:22:21.245Z,94207.53
2022-09-26T15:24:53.033Z,94209.25
2022-09-26T15:27:24.996Z,94191.75
2022-09-26T15:29:53.523Z,94193.47
2022-09-26T15:32:27.170Z,94197.31
2022-09-26T15:34:54.740Z,94195.13
2022-09-26T15:37:27.180Z,94190.00
2022-09-26T15:39:54.105Z,94200.28
2022-09-26T15:42:28.906Z,94201.13
2022-09-26T15:44:57.615Z,94195.00
2022-09-26T15:47:30.564Z,94193.91
2022-09-26T15:50:29.540Z,94194.09
2022-09-26T15:53:00.016Z,94187.06
2022-09-26T15:55:43.907Z,94184.72
2022-09-26T15:58:15.088Z,94182.13
2022-09-26T16:00:48.595Z,94197.63
2022-09-26T16:03:27.493Z,94196.09
2022-09-26T16:05:54.872Z,94197.75
2022-09-26T16:08:24.580Z,94187.56
2022-09-26T16:10:55.005Z,94191.56
2022-09-26T16:13:24.161Z,94192.91
2022-09-26T16:16:00.715Z,94188.41
2022-09-26T16:18:27.374Z,94183.97
2022-09-26T16:21:14.744Z,94192.22
2022-09-26T16:23:50.311Z,94197.53
2022-09-26T16:26:31.091Z,94196.25
2022-09-26T16:28:58.782Z,94190.19
2022-09-26T16:31:45.736Z,94193.38
2022-09-26T16:34:20.805Z,94200.66
2022-09-26T16:36:47.890Z,94200.72
2022-09-26T16:39:26.337Z,94215.09
2022-09-26T16:42:02.801Z,94217.00
2022-09-26T16:44:35.829Z,94217.78
2022-09-26T16:47:27.155Z,94215.94
2022-09-26T16:49:53.860Z,94215.13
2022-09-26T16:52:26.335Z,94206.34
2022-09-26T16:54:57.534Z,94201.03
2022-09-26T16:57:28.456Z,94210.91
2022-09-26T16:59:58.398Z,94214.38
2022-09-26T17:02:26.129Z,94224.47
2022-09-26T17:04:53.760Z,94219.38
2022-09-26T17:07:20.313Z,94222.06
2022-09-26T17:09:46.775Z,94205.34
2022-09-26T17:12:21.548Z,94209.28
2022-09-26T17:14:50.367Z,94202.06
2022-09-26T17:17:20.307Z,94212.97
2022-09-26T17:19:48.283Z,94203.38
2022-09-26T17:22:16.830Z,94202.88
2022-09-26T17:24:47.271Z,94194.91
2022-09-26T17:27:16.451Z,94193.50
2022-09-26T17:29:45.183Z,94206.63
2022-09-26T17:32:22.305Z,94204.47
2022-09-26T17:34:48.788Z,94197.81
2022-09-26T17:37:16.608Z,94199.59
2022-09-26T17:39:43.087Z,94204.44
2022-09-26T17:42:09.726Z,94201.00
2022-09-26T17:44:36.220Z,94193.03
2022-09-26T17:47:03.205Z,94190.41
2022-09-26T17:49:36.073Z,94185.94
2022-09-26T17:52:04.426Z,94197.38
2022-09-26T17:54:33.335Z,94188.59
2022-09-26T17:57:02.296Z,94182.19
2022-09-26T17:59:29.080Z,94183.59
2022-09-26T18:02:01.940Z,94187.25
2022-09-26T18:04:28.984Z,94168.63
2022-09-26T18:07:01.327Z,94174.97
2022-09-26T18:09:32.653Z,94172.84
2022-09-26T18:12:00.682Z,94184.81
2022-09-26T18:14:29.555Z,94175.78
2022-09-26T18:16:56.066Z,94178.69
2022-09-26T18:19:22.658Z,94175.25
2022-09-26T18:21:55.418Z,94170.97
2022-09-26T18:24:27.142Z,94164.31
2022-09-26T18:26:54.202Z,94170.97
2022-09-26T18:29:34.670Z,94172.28
2022-09-26T18:32:02.798Z,94167.47
2022-09-26T18:34:29.362Z,94165.66
2022-09-26T18:36:56.022Z,94174.47
2022-09-26T18:39:23.672Z,94174.03
2022-09-26T18:41:55.444Z,94189.22
2022-09-26T18:44:22.533Z,94182.53
2022-09-26T18:46:49.474Z,94181.50
2022-09-26T18:49:16.264Z,94192.44
2022-09-26T18:51:42.971Z,94193.25
2022-09-26T18:54:12.720Z,94197.78
2022-09-26T18:56:40.832Z,94193.28
2022-09-26T18:59:07.459Z,94202.03
2022-09-26T19:01:35.930Z,94194.84
2022-09-26T19:04:07.622Z,94200.72
2022-09-26T19:06:39.496Z,94189.53
2022-09-26T19:09:07.942Z,94197.50
2022-09-26T19:11:34.643Z,94185.81
2022-09-26T19:14:14.050Z,94184.47
2022-09-26T19:16:52.430Z,94191.38
2022-09-26T19:19:19.730Z,94194.06
2022-09-26T19:21:51.250Z,94196.97
2022-09-26T19:24:23.427Z,94193.81
2022-09-26T19:26:59.581Z,94205.47
2022-09-26T19:29:55.462Z,94211.59
2022-09-26T19:32:25.430Z,94201.72
2022-09-26T19:34:57.363Z,94201.22
2022-09-26T19:37:24.130Z,94191.63
2022-09-26T19:39:50.743Z,94196.19
2022-09-26T19:42:17.392Z,94204.94
2022-09-26T19:44:47.337Z,94205.47
2022-09-26T19:47:22.012Z,94190.56
2022-09-26T19:49:52.508Z,94203.06
2022-09-26T19:52:21.537Z,94201.97
2022-09-26T19:54:48.480Z,94203.22
2022-09-26T19:57:20.661Z,94198.16
2022-09-26T19:59:47.796Z,94194.69
2022-09-26T20:02:24.740Z,94193.91
2022-09-26T20:04:51.750Z,94190.69
2022-09-26T20:07:20.966Z,94180.59
2022-09-26T20:09:47.616Z,94172.25
2022-09-26T20:12:14.201Z,94167.75
2022-09-26T20:14:42.018Z,94180.91
2022-09-26T20:17:11.576Z,94175.63
2022-09-26T20:19:40.193Z,94178.06
2022-09-26T20:22:13.778Z,94164.28
2022-09-26T20:24:40.496Z,94160.59
2022-09-26T20:27:21.600Z,94151.53
2022-09-26T20:29:49.205Z,94132.13
2022-09-26T20:32:17.236Z,94132.72
2022-09-26T20:34:43.852Z,94128.78
2022-09-26T20:37:11.698Z,94130.91
2022-09-26T20:39:39.129Z,94122.97
2022-09-26T20:42:12.077Z,94114.22
2022-09-26T20:44:41.718Z,94119.25
2022-09-26T20:47:12.701Z,94101.47
2022-09-26T20:49:55.309Z,94106.50
2022-09-26T20:52:24.266Z,94097.22
2022-09-26T20:54:51.195Z,94094.00
2022-09-26T20:57:18.279Z,94095.28
2022-09-26T20:59:44.814Z,94097.97
2022-09-26T21:02:40.595Z,94102.47
2022-09-26T21:05:19.047Z,94107.50
2022-09-26T21:07:45.983Z,94106.97
2022-09-26T21:10:30.003Z,94112.56
2022-09-26T21:12:57.007Z,94105.16
2022-09-26T21:15:25.312Z,94099.03
2022-09-26T21:17:52.884Z,94095.78
2022-09-26T21:20:24.415Z,94101.88
2022-09-26T21:22:51.076Z,94095.31
2022-09-26T21:25:20.180Z,94100.09
2022-09-26T21:27:48.399Z,94099.22
2022-09-26T21:30:18.916Z,94095.47
2022-09-26T21:32:50.874Z,94089.38
2022-09-26T21:35:18.665Z,94087.78
2022-09-26T21:37:47.030Z,94077.97
2022-09-26T21:40:13.627Z,94070.06
2022-09-26T21:42:42.983Z,94069.56
2022-09-26T21:45:10.804Z,94074.53
2022-09-26T21:47:37.532Z,94080.19
2022-09-26T21:50:06.826Z,94069.25
2022-09-26T21:52:46.980Z,94067.63
2022-09-26T21:55:17.421Z,94051.44
2022-09-26T21:57:47.056Z,94057.59
2022-09-26T22:00:14.161Z,94053.31
2022-09-26T22:02:40.750Z,94062.56
2022-09-26T22:05:08.622Z,94056.97
2022-09-26T22:07:35.712Z,94061.50
2022-09-26T22:10:02.546Z,94062.75
2022-09-26T22:12:29.031Z,94056.75
2022-09-26T22:14:55.742Z,94048.75
2022-09-26T22:17:22.388Z,94046.59
2022-09-26T22:19:51.664Z,94044.19
2022-09-26T22:22:18.824Z,94042.81
2022-09-26T22:24:45.629Z,94046.81
2022-09-26T22:27:12.489Z,94038.31
2022-09-26T22:29:38.937Z,94046.78
2022-09-26T22:32:05.502Z,94037.44
2022-09-26T22:34:32.014Z,94044.59
2022-09-26T22:36:58.484Z,94028.06
2022-09-26T22:39:25.078Z,94020.06
2022-09-26T22:41:52.583Z,94028.28
2022-09-26T22:44:20.438Z,94033.28
2022-09-26T22:46:47.040Z,94021.31
2022-09-26T22:49:13.635Z,94020.75
2022-09-26T22:51:40.178Z,94021.31
2022-09-26T22:54:06.801Z,94018.38
2022-09-26T22:56:33.505Z,94016.72
2022-09-26T22:59:00.010Z,94006.03
2022-09-26T23:01:27.748Z,94019.41
2022-09-26T23:03:54.873Z,94010.91
2022-09-26T23:06:22.426Z,94008.28
2022-09-26T23:08:48.953Z,94001.94
2022-09-26T23:11:16.345Z,94008.03
2022-09-26T23:13:42.875Z,94007.75
2022-09-26T23:16:15.096Z,94005.09
2022-09-26T23:18:42.198Z,94006.56
2022-09-26T23:21:10.480Z,94008.16
2022-09-26T23:23:39.278Z,93987.25
2022-09-26T23:26:06.811Z,93997.78
2022-09-26T23:28:33.733Z,93995.84
2022-09-26T23:31:05.447Z,93986.91
2022-09-26T23:33:32.032Z,93976.38
2022-09-26T23:35:59.153Z,93976.88
2022-09-26T23:38:26.957Z,93984.56
2022-09-26T23:40:53.985Z,93973.00
2022-09-26T23:43:20.542Z,93973.53
2022-09-26T23:45:47.068Z,93968.19
2022-09-26T23:48:13.689Z,93966.91
2022-09-26T23:50:40.402Z,93955.53
2022-09-26T23:53:06.986Z,93954.47
2022-09-26T23:55:33.765Z,93964.91
2022-09-26T23:58:00.214Z,93949.31
